Terminal Aerodrome Forecast
Issued by NWS

Home | Current Version | Previous Version | Text Only | Print | Product List | Glossary Off
Versions: 1 2 3 4 5 6 7 8 9 10 11 12 13

917
FTUS44 KTSA 090110 AAA
TAFMLC
TAF AMD
KMLC 090110Z 0901/0924 33011G21KT P6SM SCT250
     FM090200 32008KT P6SM SCT250
     FM091500 33013G20KT P6SM SKC=

USA.gov is the U.S. government's official web portal to all federal, state and local government web resources and services.